Otterville, Iowa
Current Conditions -  °F | °C
As of 11:35 AM on Friday 31 Oct 2014 (Local Time) from KIIB Reporting Station
Clear Clear  
Wind Chill: 25°   Ceiling: Unl
Heat Index: 36°   Visibility: 10mi
Dew Point: 23°   Wind: 21mph
Humidity: 60%   Direction: 10°N
Pressure: 30.42"   Gusts: NA
Location:  42.46°N, 91.7742°W
Report Text: KIIB 311635Z AUTO 01018KT 10SM CLR 02/M05 A3042 RMK AO2
Loading
Personal Weather Stations






























Interactive Weather Map
Tropical Storm Tracking
New forecast layout! Learn more

10-Day Weather Forecast

Advertisements
Track Severe Weather on mobile